createdAt,value
2023-06-23T00:01:34.897Z,17.20
2023-06-23T00:11:33.932Z,17.20
2023-06-23T00:21:32.874Z,17.20
2023-06-23T00:31:32.334Z,17.20
2023-06-23T00:41:30.988Z,17.30
2023-06-23T00:51:30.782Z,17.30
2023-06-23T01:01:31.793Z,17.40
2023-06-23T01:11:30.948Z,17.20
2023-06-23T01:21:29.902Z,17.10
2023-06-23T01:31:31.400Z,17.20
2023-06-23T01:41:30.112Z,17.00
2023-06-23T01:51:28.918Z,17.00
2023-06-23T02:01:27.997Z,17.00
2023-06-23T02:11:28.892Z,17.00
2023-06-23T02:21:27.957Z,17.00
2023-06-23T02:31:26.986Z,16.90
2023-06-23T02:41:26.582Z,17.00
2023-06-23T02:51:26.058Z,17.10
2023-06-23T03:01:28.677Z,17.20
2023-06-23T03:11:28.020Z,17.20
2023-06-23T03:21:26.964Z,17.20
2023-06-23T03:31:26.033Z,17.20
2023-06-23T03:41:25.006Z,17.30
2023-06-23T03:51:24.024Z,17.30
2023-06-23T04:01:23.977Z,17.30
2023-06-23T04:11:23.028Z,17.20
2023-06-23T04:21:22.005Z,17.30
2023-06-23T04:31:21.058Z,17.40
2023-06-23T04:41:20.136Z,17.60
2023-06-23T04:51:19.062Z,18.00
2023-06-23T05:01:18.091Z,18.20
2023-06-23T05:11:17.057Z,18.30
2023-06-23T05:21:16.051Z,18.50
2023-06-23T05:31:15.089Z,18.60
2023-06-23T05:41:14.057Z,18.50
2023-06-23T05:51:13.050Z,18.40
2023-06-23T06:01:12.112Z,18.70
2023-06-23T06:11:11.288Z,19.10
2023-06-23T06:21:10.160Z,19.60
2023-06-23T06:31:09.206Z,19.70
2023-06-23T06:41:08.142Z,20.10
2023-06-23T06:51:07.191Z,20.90
2023-06-23T07:01:07.084Z,21.50
2023-06-23T07:11:06.147Z,21.50
2023-06-23T07:21:05.603Z,21.60
2023-06-23T07:31:04.220Z,21.90
2023-06-23T07:41:03.555Z,22.20
2023-06-23T07:51:02.954Z,22.50
2023-06-23T08:01:02.156Z,22.90
2023-06-23T08:11:01.168Z,22.50
2023-06-23T08:21:00.306Z,22.70
2023-06-23T08:30:59.303Z,22.80
2023-06-23T08:40:58.399Z,22.50
2023-06-23T08:50:57.226Z,22.50
2023-06-23T09:00:56.542Z,22.90
2023-06-23T09:10:55.264Z,23.50
2023-06-23T09:20:54.225Z,25.10
2023-06-23T09:30:53.262Z,25.60
2023-06-23T09:40:52.257Z,25.70
2023-06-23T09:50:51.294Z,25.70
2023-06-23T10:00:50.251Z,25.60
2023-06-23T10:10:49.282Z,26.30
2023-06-23T10:20:48.394Z,26.90
2023-06-23T10:30:47.346Z,26.00
2023-06-23T10:40:46.279Z,26.90
2023-06-23T10:50:45.299Z,26.30
2023-06-23T11:00:44.336Z,27.10
2023-06-23T11:10:43.307Z,27.10
2023-06-23T11:20:42.654Z,26.90
2023-06-23T11:30:41.347Z,27.20
2023-06-23T11:40:40.343Z,26.60
2023-06-23T11:50:39.471Z,26.40
2023-06-23T12:00:38.351Z,26.90
2023-06-23T12:10:37.779Z,27.30
2023-06-23T12:20:37.380Z,27.10
2023-06-23T12:30:36.358Z,27.20
2023-06-23T12:40:35.402Z,27.30
2023-06-23T12:50:38.230Z,27.20
2023-06-23T13:00:37.086Z,27.60
2023-06-23T13:10:36.539Z,27.40
2023-06-23T13:20:35.628Z,28.00
2023-06-23T13:30:34.405Z,28.20
2023-06-23T13:40:33.414Z,27.90
2023-06-23T13:50:32.416Z,27.60
2023-06-23T14:00:32.630Z,28.10
2023-06-23T14:10:31.445Z,28.20
2023-06-23T14:20:30.505Z,28.10
2023-06-23T14:30:29.415Z,28.40
2023-06-23T14:40:28.484Z,28.80
2023-06-23T14:50:27.450Z,29.10
2023-06-23T15:00:26.466Z,29.10
2023-06-23T15:10:25.500Z,28.30
2023-06-23T15:20:24.470Z,27.70
2023-06-23T15:30:23.467Z,27.30
2023-06-23T15:40:22.536Z,27.10
2023-06-23T15:50:21.535Z,29.00
2023-06-23T16:00:22.412Z,33.90
2023-06-23T16:10:21.579Z,35.30
2023-06-23T16:20:20.513Z,30.30
2023-06-23T16:30:19.575Z,28.30
2023-06-23T16:40:18.558Z,28.90
2023-06-23T16:50:17.647Z,29.60
2023-06-23T17:00:16.536Z,29.80
2023-06-23T17:10:15.974Z,29.50
2023-06-23T17:20:14.564Z,30.50
2023-06-23T17:30:15.451Z,29.30
2023-06-23T17:40:15.303Z,28.70
2023-06-23T17:50:14.610Z,28.30
2023-06-23T18:00:13.612Z,28.00
2023-06-23T18:10:12.625Z,27.40
2023-06-23T18:20:11.628Z,27.00
2023-06-23T18:30:10.609Z,26.70
2023-06-23T18:40:09.626Z,26.30
2023-06-23T18:50:08.651Z,26.00
2023-06-23T19:00:08.922Z,25.90
2023-06-23T19:10:07.699Z,25.80
2023-06-23T19:20:06.648Z,25.40
2023-06-23T19:30:05.676Z,25.10
2023-06-23T19:40:04.738Z,24.70
2023-06-23T19:50:03.743Z,24.30
2023-06-23T20:00:02.752Z,23.80
2023-06-23T20:10:01.713Z,23.30
2023-06-23T20:20:00.669Z,22.90
2023-06-23T20:30:00.498Z,22.70
2023-06-23T20:39:59.711Z,22.30
2023-06-23T20:49:58.745Z,22.10
2023-06-23T20:59:57.717Z,21.90
2023-06-23T21:09:56.766Z,21.70
2023-06-23T21:19:56.037Z,21.40
2023-06-23T21:29:54.756Z,21.30
2023-06-23T21:39:53.853Z,21.10
2023-06-23T21:49:52.773Z,21.00
2023-06-23T21:59:51.738Z,20.80
2023-06-23T22:09:50.811Z,20.60
2023-06-23T22:19:49.814Z,20.40
2023-06-23T22:29:48.790Z,20.40
2023-06-23T22:39:47.823Z,20.20
2023-06-23T22:49:46.805Z,20.00
2023-06-23T22:59:45.902Z,19.90
2023-06-23T23:09:44.850Z,19.70
2023-06-23T23:19:43.906Z,19.60
2023-06-23T23:29:42.812Z,19.50
2023-06-23T23:39:41.826Z,19.50
2023-06-23T23:49:40.817Z,19.40
2023-06-23T23:59:39.844Z,19.30
